Time;durP1;ratioP1;P1;durP2;ratioP2;P2;SDS_P1;SDS_P2;PMS_P1;PMS_P2;Temp;Humidity;BMP_temperature;BMP_pressure;BME280_temperature;BME280_humidity;BME280_pressure;Samples;Min_cycle;Max_cycle;Signal;HPM_P1;HPM_P2
2022/01/14 00:00:58;;;;;;;40.42;21.40;;;0.00;35.30;;;;;;5004440;28;20038;-63
2022/01/14 00:03:26;;;;;;;41.10;21.52;;;0.00;35.60;;;;;;5008397;28;20538;-64
2022/01/14 00:05:54;;;;;;;42.67;22.67;;;0.00;35.50;;;;;;5008328;28;20053;-64
2022/01/14 00:08:22;;;;;;;42.88;21.83;;;0.10;35.40;;;;;;5002978;28;20077;-64
2022/01/14 00:10:50;;;;;;;38.33;22.58;;;0.20;34.80;;;;;;5007086;28;20046;-63
2022/01/14 00:16:02;;;;;;;40.75;23.00;;;0.10;33.20;;;;;;5002984;28;20073;-63
2022/01/14 00:18:30;;;;;;;44.50;22.33;;;0.10;33.10;;;;;;4990585;28;20050;-63
2022/01/14 00:21:00;;;;;;;44.03;24.55;;;0.10;32.90;;;;;;4985441;28;20128;-63
2022/01/14 00:23:37;;;;;;;41.85;23.20;;;0.10;32.60;;;;;;4985430;28;20121;-64
2022/01/14 00:31:45;;;;;;;42.13;22.13;;;0.10;32.10;;;;;;5006695;28;20523;-63
2022/01/14 00:34:17;;;;;;;41.17;22.85;;;0.00;31.70;;;;;;5008303;28;20456;-62
2022/01/14 00:36:45;;;;;;;48.20;23.70;;;0.00;32.20;;;;;;5001794;28;20524;-62
2022/01/14 00:39:15;;;;;;;45.22;22.98;;;0.10;31.80;;;;;;5005768;28;20121;-62
2022/01/14 00:41:43;;;;;;;48.88;23.25;;;0.10;31.30;;;;;;5006603;28;20038;-63
2022/01/14 00:44:16;;;;;;;45.65;23.52;;;0.10;30.70;;;;;;5008121;28;20424;-63
2022/01/14 00:46:45;;;;;;;45.90;24.60;;;0.10;30.00;;;;;;5000042;28;20450;-62
2022/01/14 00:49:15;;;;;;;39.38;23.35;;;0.10;29.90;;;;;;5004448;28;20133;-63
2022/01/14 00:51:44;;;;;;;39.28;21.48;;;0.10;29.80;;;;;;5005323;28;20046;-63
2022/01/14 00:54:12;;;;;;;41.80;22.45;;;0.10;29.80;;;;;;5007035;28;20046;-63
2022/01/14 00:57:00;;;;;;;43.00;23.35;;;0.00;29.80;;;;;;5002341;28;20496;-63
2022/01/14 00:59:29;;;;;;;42.25;22.95;;;0.00;29.70;;;;;;5006228;28;20508;-63
2022/01/14 01:02:00;;;;;;;38.85;21.15;;;0.00;29.60;;;;;;5004979;28;20069;-63
2022/01/14 01:04:32;;;;;;;37.92;21.92;;;0.00;29.90;;;;;;5006279;28;20133;-63
2022/01/14 01:07:02;;;;;;;40.63;22.75;;;0.00;29.80;;;;;;5002582;28;20137;-63
2022/01/14 01:09:31;;;;;;;41.65;23.10;;;0.00;29.90;;;;;;5004850;28;20969;-62
2022/01/14 01:12:11;;;;;;;40.95;22.35;;;0.00;29.50;;;;;;5006663;28;20529;-63
2022/01/14 01:14:46;;;;;;;45.85;24.13;;;0.00;29.30;;;;;;5004384;28;20582;-62
2022/01/14 01:17:15;;;;;;;40.72;23.77;;;-0.10;29.50;;;;;;4982394;28;20050;-64
2022/01/14 01:19:45;;;;;;;39.63;23.00;;;-0.10;29.80;;;;;;5005684;28;20048;-62
2022/01/14 01:22:13;;;;;;;43.38;23.95;;;-0.10;29.70;;;;;;5006324;28;20053;-62
2022/01/14 01:24:43;;;;;;;45.28;24.60;;;-0.20;29.50;;;;;;5007171;28;20042;-61
2022/01/14 01:27:11;;;;;;;44.38;24.00;;;-0.10;29.80;;;;;;5001410;28;20136;-62
2022/01/14 01:29:52;;;;;;;50.17;25.15;;;-0.20;29.30;;;;;;5006416;28;20058;-63
2022/01/14 01:32:21;;;;;;;44.92;25.50;;;-0.10;29.60;;;;;;5008036;28;20133;-63
2022/01/14 01:34:50;;;;;;;44.97;25.70;;;-0.10;29.20;;;;;;5000856;28;20058;-62
2022/01/14 01:37:21;;;;;;;46.33;25.23;;;-0.10;28.70;;;;;;5001678;28;20038;-64
2022/01/14 01:39:50;;;;;;;47.22;25.23;;;-0.20;27.70;;;;;;5005648;28;20046;-63
2022/01/14 01:42:26;;;;;;;40.65;24.33;;;-0.20;27.70;;;;;;5006208;28;20068;-62
2022/01/14 01:44:58;;;;;;;43.47;23.75;;;-0.20;28.20;;;;;;5006328;28;20103;-63
2022/01/14 01:47:29;;;;;;;41.90;24.52;;;-0.20;27.70;;;;;;5000532;28;20045;-62
2022/01/14 01:49:57;;;;;;;42.20;24.38;;;-0.20;27.80;;;;;;5006556;28;20129;-62
2022/01/14 01:52:25;;;;;;;45.45;24.88;;;-0.30;27.70;;;;;;5006230;28;20080;-63
2022/01/14 01:54:53;;;;;;;46.85;24.52;;;-0.30;28.30;;;;;;5004420;28;20087;-62
2022/01/14 01:57:21;;;;;;;44.53;24.23;;;-0.30;28.30;;;;;;5002458;28;20514;-63
2022/01/14 01:59:49;;;;;;;45.42;23.95;;;-0.30;28.40;;;;;;5004213;28;20045;-62
2022/01/14 02:02:18;;;;;;;44.97;24.33;;;-0.30;28.60;;;;;;5003564;28;20490;-63
2022/01/14 02:04:46;;;;;;;44.67;23.85;;;-0.30;28.50;;;;;;5007180;28;20046;-62
2022/01/14 02:07:14;;;;;;;48.35;23.38;;;-0.30;28.20;;;;;;5002281;28;20121;-63
2022/01/14 02:09:47;;;;;;;40.35;22.60;;;-0.30;28.70;;;;;;5005502;28;20054;-63
2022/01/14 02:12:15;;;;;;;39.42;22.77;;;-0.30;28.80;;;;;;5004626;28;20073;-63
2022/01/14 02:17:45;;;;;;;40.90;22.88;;;-0.30;28.70;;;;;;4990250;28;20104;-63
2022/01/14 02:23:04;;;;;;;41.15;21.00;;;-0.40;29.50;;;;;;5004482;28;20556;-63
2022/01/14 02:25:32;;;;;;;34.95;20.17;;;-0.40;29.60;;;;;;5004571;28;20420;-62
2022/01/14 02:28:05;;;;;;;40.20;20.58;;;-0.50;29.60;;;;;;4998648;28;20585;-62
2022/01/14 02:30:35;;;;;;;37.97;20.95;;;-0.50;29.60;;;;;;5003632;28;20048;-62
2022/01/14 02:33:03;;;;;;;43.25;20.13;;;-0.50;29.90;;;;;;5003597;28;20509;-63
2022/01/14 02:35:33;;;;;;;32.50;19.45;;;-0.40;29.80;;;;;;5003636;28;20136;-63
2022/01/14 02:38:01;;;;;;;38.67;21.10;;;-0.50;29.60;;;;;;4999107;28;20188;-63
2022/01/14 02:40:30;;;;;;;34.35;18.65;;;-0.50;29.60;;;;;;5003910;28;20713;-63
2022/01/14 02:43:00;;;;;;;32.70;19.52;;;-0.50;29.90;;;;;;5004901;28;20418;-61
2022/01/14 02:45:31;;;;;;;33.38;18.55;;;-0.60;29.60;;;;;;5004200;28;20046;-62
2022/01/14 02:48:02;;;;;;;32.53;18.95;;;-0.60;29.60;;;;;;5000077;28;20517;-62
2022/01/14 02:50:39;;;;;;;34.45;19.75;;;-0.50;29.80;;;;;;5003080;28;20046;-63
2022/01/14 02:53:25;;;;;;;31.05;17.85;;;-0.60;29.90;;;;;;5005338;28;20120;-63
2022/01/14 02:55:55;;;;;;;37.97;21.42;;;-0.60;30.00;;;;;;5005785;28;20141;-62
2022/01/14 02:58:25;;;;;;;39.15;22.25;;;-0.50;30.40;;;;;;4999633;28;20129;-62
2022/01/14 03:00:58;;;;;;;38.25;21.52;;;-0.50;30.30;;;;;;5004040;28;20067;-62
2022/01/14 03:03:30;;;;;;;46.28;22.48;;;-0.50;30.30;;;;;;5005713;28;20132;-62
2022/01/14 03:06:01;;;;;;;41.63;22.40;;;-0.50;29.90;;;;;;5004275;28;20053;-62
2022/01/14 03:08:29;;;;;;;40.60;22.58;;;-0.50;29.60;;;;;;5000372;28;20125;-63
2022/01/14 03:11:00;;;;;;;42.88;22.38;;;-0.50;29.60;;;;;;5001232;28;20042;-62
2022/01/14 03:13:29;;;;;;;44.35;24.95;;;-0.50;29.60;;;;;;5005909;28;20104;-63
2022/01/14 03:15:57;;;;;;;44.53;24.75;;;-0.50;29.00;;;;;;5005229;28;20050;-63
2022/01/14 03:18:33;;;;;;;42.70;24.17;;;-0.50;29.10;;;;;;5000988;28;20056;-63
2022/01/14 03:21:10;;;;;;;43.05;25.27;;;-0.50;28.90;;;;;;5002795;28;20144;-63
2022/01/14 03:23:45;;;;;;;44.30;25.80;;;-0.50;28.50;;;;;;5004010;28;20437;-63
2022/01/14 03:26:13;;;;;;;43.90;24.73;;;-0.60;28.90;;;;;;5016811;28;20116;-62
2022/01/14 03:28:42;;;;;;;45.42;25.60;;;-0.60;28.50;;;;;;5001790;28;20065;-62
2022/01/14 03:31:10;;;;;;;45.00;25.52;;;-0.60;28.50;;;;;;4977200;28;20129;-61
2022/01/14 03:33:38;;;;;;;45.25;25.20;;;-0.60;28.80;;;;;;5004511;28;20108;-61
2022/01/14 03:36:08;;;;;;;50.45;26.92;;;-0.60;28.70;;;;;;5001574;28;20141;-63
2022/01/14 03:38:37;;;;;;;49.47;26.77;;;-0.60;28.90;;;;;;5001377;28;20042;-63
2022/01/14 03:41:06;;;;;;;52.05;26.98;;;-0.60;28.70;;;;;;5004907;28;20513;-63
2022/01/14 03:43:35;;;;;;;46.05;26.73;;;-0.60;28.90;;;;;;5005282;28;20506;-62
2022/01/14 03:46:07;;;;;;;48.88;26.65;;;-0.60;29.20;;;;;;5004533;28;20050;-63
2022/01/14 03:48:35;;;;;;;44.90;26.20;;;-0.70;29.00;;;;;;5000079;28;20714;-63
2022/01/14 03:51:03;;;;;;;49.78;26.70;;;-0.70;29.40;;;;;;5002597;28;20100;-63
2022/01/14 03:53:33;;;;;;;49.08;27.45;;;-0.70;29.40;;;;;;5009287;28;20144;-63
2022/01/14 03:56:01;;;;;;;50.85;26.77;;;-0.70;29.40;;;;;;5006961;28;20524;-63
2022/01/14 03:58:42;;;;;;;52.95;27.48;;;-0.70;29.40;;;;;;5004724;28;20050;-63
2022/01/14 04:01:11;;;;;;;47.20;27.13;;;-0.70;29.40;;;;;;5007956;28;20145;-63
2022/01/14 04:03:41;;;;;;;52.95;27.92;;;-0.70;29.50;;;;;;5008058;28;20050;-63
2022/01/14 04:06:10;;;;;;;50.25;27.20;;;-0.70;29.40;;;;;;5007121;28;20083;-63
2022/01/14 04:08:41;;;;;;;52.38;28.10;;;-0.70;29.40;;;;;;5004076;28;20128;-62
2022/01/14 04:11:10;;;;;;;55.00;28.50;;;-0.70;29.40;;;;;;5006717;28;20146;-63
2022/01/14 04:13:45;;;;;;;45.17;27.00;;;-0.70;29.40;;;;;;5008522;28;20038;-62
2022/01/14 04:16:14;;;;;;;48.72;26.95;;;-0.60;29.50;;;;;;5006561;28;20058;-60
2022/01/14 04:18:42;;;;;;;48.50;26.80;;;-0.70;29.40;;;;;;5004128;28;20580;-63
2022/01/14 04:21:11;;;;;;;46.20;26.55;;;-0.60;29.50;;;;;;5008320;28;20528;-63
2022/01/14 04:23:40;;;;;;;48.28;26.38;;;-0.60;28.90;;;;;;5005996;28;20084;-62
2022/01/14 04:26:08;;;;;;;48.25;25.83;;;-0.70;28.90;;;;;;5005208;28;20053;-62
2022/01/14 04:28:36;;;;;;;49.60;26.15;;;-0.60;28.70;;;;;;5003192;28;20044;-63
2022/01/14 04:31:05;;;;;;;42.40;23.38;;;-0.60;28.40;;;;;;5005991;28;20068;-62
2022/01/14 04:33:35;;;;;;;45.90;24.60;;;-0.70;28.20;;;;;;5008376;28;20084;-63
2022/01/14 04:36:04;;;;;;;44.42;26.00;;;-0.60;28.10;;;;;;5006437;28;20065;-62
2022/01/14 04:38:33;;;;;;;43.58;25.70;;;-0.60;28.00;;;;;;5000090;28;20038;-63
2022/01/14 04:41:03;;;;;;;42.88;24.38;;;-0.70;28.10;;;;;;5008220;28;20057;-62
2022/01/14 04:43:31;;;;;;;44.35;24.40;;;-0.70;28.00;;;;;;5008415;28;20128;-62
2022/01/14 04:46:36;;;;;;;41.65;22.83;;;-0.70;27.90;;;;;;5005888;28;20100;-62
2022/01/14 04:49:03;;;;;;;42.25;23.60;;;-0.60;27.90;;;;;;5000435;28;20180;-62
2022/01/14 04:51:31;;;;;;;39.88;22.85;;;-0.60;27.60;;;;;;5006799;28;20432;-62
2022/01/14 04:53:59;;;;;;;41.85;23.52;;;-0.60;27.30;;;;;;5007118;28;20137;-63
2022/01/14 04:56:29;;;;;;;42.63;23.85;;;-0.60;26.80;;;;;;5002035;28;20524;-62
2022/01/14 04:58:57;;;;;;;40.42;23.20;;;-0.60;26.90;;;;;;5003215;28;20073;-62
2022/01/14 05:01:25;;;;;;;40.42;22.40;;;-0.60;26.40;;;;;;5005971;28;20149;-62
2022/01/14 05:03:55;;;;;;;37.97;22.17;;;-0.60;26.50;;;;;;5007821;28;20054;-62
2022/01/14 05:06:23;;;;;;;43.90;24.13;;;-0.60;26.00;;;;;;5006046;28;20057;-62
2022/01/14 05:08:51;;;;;;;38.63;22.20;;;-0.60;26.00;;;;;;5004333;28;20049;-62
2022/01/14 05:11:35;;;;;;;44.65;23.40;;;-0.60;25.80;;;;;;5007390;28;20044;-62
2022/01/14 05:14:04;;;;;;;41.22;23.13;;;-0.60;25.50;;;;;;5006663;28;20513;-62
2022/01/14 05:16:33;;;;;;;43.97;23.77;;;-0.70;25.80;;;;;;5005503;28;20477;-62
2022/01/14 05:19:04;;;;;;;42.45;24.20;;;-0.70;26.10;;;;;;5004594;28;20049;-62
2022/01/14 05:21:34;;;;;;;47.17;23.92;;;-0.80;26.10;;;;;;5006404;28;20034;-62
2022/01/14 05:24:02;;;;;;;45.75;24.85;;;-0.80;26.60;;;;;;5007725;28;20073;-62
2022/01/14 05:26:30;;;;;;;38.55;22.13;;;-0.80;26.60;;;;;;5005161;28;20481;-62
2022/01/14 05:28:58;;;;;;;43.58;23.63;;;-0.80;26.70;;;;;;5004110;28;20084;-62
2022/01/14 05:34:19;;;;;;;47.42;25.23;;;-0.80;26.90;;;;;;5049147;27;20725;-62
2022/01/14 05:36:47;;;;;;;44.67;24.60;;;-0.80;27.00;;;;;;5035595;28;20042;-62
2022/01/14 05:39:16;;;;;;;44.60;24.40;;;-0.80;27.20;;;;;;5045918;28;20143;-63
2022/01/14 05:41:43;;;;;;;43.95;24.20;;;-0.80;27.30;;;;;;5075931;28;20046;-62
2022/01/14 05:44:11;;;;;;;40.42;23.38;;;-0.80;27.10;;;;;;5073028;28;20587;-62
2022/01/14 05:46:39;;;;;;;42.95;24.55;;;-0.80;27.10;;;;;;5070793;28;20036;-63
2022/01/14 05:49:07;;;;;;;43.72;22.77;;;-0.80;27.40;;;;;;5071111;28;20095;-62
2022/01/14 05:51:37;;;;;;;41.75;23.83;;;-0.80;27.10;;;;;;5073872;28;20397;-62
2022/01/14 05:54:05;;;;;;;45.00;24.73;;;-0.80;27.20;;;;;;5074931;28;20431;-62
2022/01/14 05:56:33;;;;;;;41.67;23.30;;;-0.80;27.30;;;;;;5075868;28;20059;-62
2022/01/14 05:59:01;;;;;;;43.28;23.23;;;-0.70;26.90;;;;;;5067807;28;20056;-62
2022/01/14 06:01:30;;;;;;;43.38;23.15;;;-0.70;26.20;;;;;;5075735;28;20559;-62
2022/01/14 06:03:58;;;;;;;45.92;23.55;;;-0.60;25.90;;;;;;5073682;28;20044;-62
2022/01/14 06:06:26;;;;;;;39.03;23.17;;;-0.70;25.50;;;;;;5074682;28;20168;-62
2022/01/14 06:08:55;;;;;;;41.47;22.80;;;-0.70;25.20;;;;;;5070542;28;20504;-62
2022/01/14 06:11:24;;;;;;;39.10;22.88;;;-0.60;25.10;;;;;;5077858;28;20465;-62
2022/01/14 06:13:52;;;;;;;35.25;21.35;;;-0.60;24.20;;;;;;5075666;28;20135;-61
2022/01/14 06:16:20;;;;;;;39.78;22.33;;;-0.60;23.90;;;;;;5073543;28;20524;-63
2022/01/14 06:18:49;;;;;;;42.88;22.48;;;-0.60;23.50;;;;;;5066020;28;20052;-63
2022/01/14 06:21:17;;;;;;;41.10;22.77;;;-0.60;23.10;;;;;;5077016;28;20048;-63
2022/01/14 06:23:45;;;;;;;41.03;22.58;;;-0.60;23.60;;;;;;5076756;28;20036;-62
2022/01/14 06:26:24;;;;;;;43.17;23.50;;;-0.70;23.60;;;;;;5068856;28;20056;-62
2022/01/14 06:28:52;;;;;;;41.17;23.58;;;-0.80;24.60;;;;;;5071266;28;20070;-62
2022/01/14 06:31:20;;;;;;;37.92;23.27;;;-0.80;24.90;;;;;;5073696;28;20551;-62
2022/01/14 06:33:48;;;;;;;43.80;24.10;;;-0.80;25.20;;;;;;5072978;28;20126;-62
2022/01/14 06:36:16;;;;;;;42.53;23.98;;;-0.90;26.00;;;;;;5069041;28;20524;-62
2022/01/14 06:38:46;;;;;;;39.85;21.55;;;-0.90;26.00;;;;;;5062798;28;20049;-61
2022/01/14 06:41:13;;;;;;;43.38;23.10;;;-0.80;26.30;;;;;;5069163;28;20036;-60
2022/01/14 06:43:44;;;;;;;40.03;24.00;;;-0.80;26.50;;;;;;5071450;28;20052;-62
2022/01/14 06:46:12;;;;;;;38.63;21.95;;;-0.80;26.40;;;;;;5051712;28;20060;-62
2022/01/14 06:48:40;;;;;;;41.80;23.40;;;-0.80;26.30;;;;;;5051253;28;20123;-62
2022/01/14 06:51:12;;;;;;;40.97;22.00;;;-0.80;26.10;;;;;;5053311;28;20060;-62
2022/01/14 06:53:45;;;;;;;38.40;23.58;;;-0.80;26.10;;;;;;5057596;28;20407;-62
2022/01/14 06:56:15;;;;;;;42.08;23.13;;;-0.80;26.00;;;;;;5061417;28;20069;-61
2022/01/14 06:58:45;;;;;;;42.90;22.85;;;-0.80;25.90;;;;;;5057586;28;20115;-60
2022/01/14 07:01:13;;;;;;;42.65;21.83;;;-0.80;26.10;;;;;;5061524;28;20044;-62
2022/01/14 07:03:41;;;;;;;41.33;22.83;;;-0.80;26.10;;;;;;5063647;28;20492;-61
2022/01/14 07:06:10;;;;;;;42.55;22.80;;;-0.90;26.00;;;;;;5056878;28;20132;-61
2022/01/14 07:08:38;;;;;;;41.20;21.55;;;-0.80;26.10;;;;;;5059217;28;20040;-61
2022/01/14 07:11:07;;;;;;;42.60;22.05;;;-0.80;26.00;;;;;;5060401;28;20440;-62
2022/01/14 07:13:35;;;;;;;39.35;22.92;;;-0.80;25.40;;;;;;5057586;28;20041;-62
2022/01/14 07:16:06;;;;;;;36.03;21.00;;;-0.90;26.00;;;;;;5056936;28;20136;-62
2022/01/14 07:18:34;;;;;;;43.15;23.17;;;-0.90;26.00;;;;;;5058551;28;20044;-61
2022/01/14 07:21:02;;;;;;;42.28;24.05;;;-0.90;26.20;;;;;;5064258;28;20044;-61
2022/01/14 07:23:30;;;;;;;37.47;21.88;;;-0.80;26.30;;;;;;5060164;28;20122;-61
2022/01/14 07:25:58;;;;;;;43.83;23.00;;;-0.90;26.10;;;;;;5059074;28;20052;-60
2022/01/14 07:28:26;;;;;;;41.35;24.25;;;-0.80;26.10;;;;;;5052734;28;20564;-61
2022/01/14 07:31:08;;;;;;;42.08;24.13;;;-0.90;26.10;;;;;;5057024;28;20140;-61
2022/01/14 07:33:36;;;;;;;43.08;23.58;;;-0.90;26.80;;;;;;5062031;28;20049;-61
2022/01/14 07:36:04;;;;;;;41.50;23.75;;;-0.90;26.70;;;;;;5057489;28;20047;-62
2022/01/14 07:38:32;;;;;;;42.78;23.42;;;-0.90;27.50;;;;;;5056359;28;20474;-63
2022/01/14 07:41:00;;;;;;;43.63;25.05;;;-0.90;27.30;;;;;;5059372;28;20075;-61
2022/01/14 07:43:28;;;;;;;44.80;23.52;;;-0.80;27.50;;;;;;5053105;28;20091;-61
2022/01/14 07:45:56;;;;;;;42.10;23.70;;;-0.70;27.50;;;;;;5054451;28;20209;-61
2022/01/14 07:48:26;;;;;;;49.45;23.88;;;-0.70;27.00;;;;;;5049043;28;20243;-62
2022/01/14 07:50:53;;;;;;;47.60;23.08;;;-0.60;27.10;;;;;;5060301;28;20040;-62
2022/01/14 07:53:21;;;;;;;40.88;22.45;;;-0.50;26.60;;;;;;5057509;28;20048;-62
2022/01/14 07:55:50;;;;;;;36.42;21.98;;;-0.50;26.00;;;;;;5061000;28;20140;-62
2022/01/14 07:58:18;;;;;;;45.47;24.65;;;-0.40;24.80;;;;;;5049722;28;20032;-62
2022/01/14 08:00:52;;;;;;;35.28;22.17;;;-0.40;24.10;;;;;;5057105;28;20503;-63
2022/01/14 08:03:20;;;;;;;48.05;22.90;;;-0.30;23.30;;;;;;5059194;28;20139;-61
2022/01/14 08:05:50;;;;;;;36.05;20.02;;;-0.30;22.70;;;;;;5061191;28;20045;-61
2022/01/14 08:08:18;;;;;;;44.08;22.08;;;-0.20;22.40;;;;;;5056966;28;20109;-62
2022/01/14 08:10:46;;;;;;;42.58;22.92;;;-0.20;21.90;;;;;;5058831;28;20044;-62
2022/01/14 08:13:15;;;;;;;37.72;21.88;;;-0.20;21.60;;;;;;5059054;28;20503;-61
2022/01/14 08:15:43;;;;;;;44.60;23.15;;;0.00;22.30;;;;;;5053501;28;20131;-62
2022/01/14 08:18:11;;;;;;;41.92;22.70;;;0.30;20.10;;;;;;5053666;28;20041;-62
2022/01/14 08:20:39;;;;;;;45.88;25.48;;;0.10;19.70;;;;;;5059094;28;20045;-62
2022/01/14 08:23:09;;;;;;;38.80;21.58;;;0.10;19.70;;;;;;5059819;28;20110;-62
2022/01/14 08:25:37;;;;;;;37.10;21.20;;;0.10;20.40;;;;;;5061053;28;20037;-62
2022/01/14 08:28:06;;;;;;;34.05;20.38;;;0.10;19.90;;;;;;5047804;28;20129;-62
2022/01/14 08:30:34;;;;;;;35.60;20.13;;;0.20;20.00;;;;;;5060367;28;20045;-62
2022/01/14 08:33:02;;;;;;;32.72;19.33;;;0.20;19.50;;;;;;5060612;28;20530;-62
2022/01/14 08:35:30;;;;;;;30.77;19.45;;;0.20;19.40;;;;;;5061663;28;20063;-63
2022/01/14 08:37:58;;;;;;;32.72;18.75;;;0.30;19.20;;;;;;5053795;28;20106;-63
2022/01/14 08:40:29;;;;;;;36.90;20.45;;;0.40;18.50;;;;;;5062182;28;20069;-62
2022/01/14 08:43:03;;;;;;;36.85;19.83;;;0.50;17.90;;;;;;5066237;28;20048;-62
2022/01/14 08:45:30;;;;;;;49.60;19.30;;;0.50;16.80;;;;;;5061613;28;20048;-62
2022/01/14 08:47:58;;;;;;;34.95;19.23;;;0.60;17.30;;;;;;5055731;28;20045;-63
2022/01/14 08:50:29;;;;;;;40.78;18.98;;;0.60;17.00;;;;;;5053069;28;20143;-63
2022/01/14 08:52:59;;;;;;;83.07;21.17;;;0.70;17.20;;;;;;5058978;28;20049;-62
2022/01/14 08:55:28;;;;;;;38.22;18.92;;;0.80;16.60;;;;;;5057443;28;20496;-63
2022/01/14 08:57:57;;;;;;;45.10;19.17;;;0.80;16.20;;;;;;5052755;28;20072;-63
2022/01/14 09:00:26;;;;;;;47.28;21.08;;;0.90;16.10;;;;;;5058358;28;20466;-63
2022/01/14 09:02:55;;;;;;;41.42;18.80;;;0.90;15.40;;;;;;5059056;28;20148;-62
2022/01/14 09:05:25;;;;;;;40.25;18.02;;;1.00;14.80;;;;;;5052788;28;20051;-63
2022/01/14 09:07:53;;;;;;;38.05;19.48;;;1.10;15.00;;;;;;5056347;28;20103;-63
2022/01/14 09:10:22;;;;;;;38.15;19.52;;;1.10;14.60;;;;;;5059030;28;20151;-64
2022/01/14 09:12:51;;;;;;;44.30;18.58;;;1.20;14.60;;;;;;5056479;28;20060;-62
2022/01/14 09:15:19;;;;;;;35.35;17.92;;;1.30;13.80;;;;;;5060750;28;20044;-63
2022/01/14 09:17:48;;;;;;;34.60;19.27;;;1.40;13.80;;;;;;5060871;28;20522;-65
2022/01/14 09:20:16;;;;;;;33.53;18.63;;;1.40;13.80;;;;;;5066066;28;20041;-63
2022/01/14 09:22:48;;;;;;;33.55;18.58;;;1.40;13.30;;;;;;5064881;28;20126;-63
2022/01/14 09:25:18;;;;;;;30.58;17.88;;;1.50;13.80;;;;;;5059315;28;20068;-63
2022/01/14 09:27:50;;;;;;;33.15;17.95;;;1.60;13.10;;;;;;5059770;28;20139;-63
2022/01/14 09:30:23;;;;;;;33.33;18.52;;;1.70;12.50;;;;;;5062277;28;20044;-63
2022/01/14 09:32:51;;;;;;;33.60;18.42;;;1.70;12.30;;;;;;5052964;28;20052;-63
2022/01/14 09:35:19;;;;;;;33.78;18.77;;;1.80;12.40;;;;;;5063159;28;20064;-62
2022/01/14 09:37:49;;;;;;;34.13;18.83;;;1.80;12.10;;;;;;5059801;28;20048;-62
2022/01/14 09:40:18;;;;;;;33.90;19.20;;;1.90;11.30;;;;;;5059614;28;20051;-63
2022/01/14 09:42:48;;;;;;;35.10;19.52;;;2.00;10.70;;;;;;5062588;28;20064;-63
2022/01/14 09:45:17;;;;;;;32.13;18.17;;;2.10;10.40;;;;;;5059729;28;20119;-63
2022/01/14 09:47:49;;;;;;;33.83;19.58;;;2.10;9.40;;;;;;5053446;28;20045;-63
2022/01/14 09:50:18;;;;;;;36.58;18.63;;;2.10;9.50;;;;;;5063127;28;20132;-63
2022/01/14 09:52:49;;;;;;;43.05;24.00;;;2.20;9.60;;;;;;5059964;28;20539;-63
2022/01/14 09:55:18;;;;;;;31.10;18.60;;;2.40;9.30;;;;;;5058282;28;20069;-63
2022/01/14 09:57:46;;;;;;;26.85;17.70;;;2.30;7.30;;;;;;5060986;28;20132;-63
2022/01/14 10:00:16;;;;;;;29.85;18.15;;;2.30;7.20;;;;;;5062610;28;20071;-63
2022/01/14 10:02:44;;;;;;;28.75;18.00;;;2.40;8.00;;;;;;5059052;28;20049;-63
2022/01/14 10:05:33;;;;;;;34.50;17.50;;;2.50;7.40;;;;;;5061598;28;20041;-63
2022/01/14 10:08:09;;;;;;;31.17;18.30;;;2.60;7.40;;;;;;5056056;28;20041;-63
2022/01/14 10:10:42;;;;;;;30.52;18.38;;;2.60;6.30;;;;;;5059175;28;20098;-64
2022/01/14 10:13:12;;;;;;;27.65;18.08;;;2.50;7.40;;;;;;5061309;28;20055;-63
2022/01/14 10:15:46;;;;;;;31.88;17.90;;;2.70;7.00;;;;;;5058521;28;20096;-62
2022/01/14 10:18:15;;;;;;;30.05;18.85;;;2.90;6.70;;;;;;5060615;28;20069;-63
2022/01/14 10:20:45;;;;;;;28.65;17.42;;;3.00;5.90;;;;;;5060207;28;20037;-62
2022/01/14 10:23:15;;;;;;;30.95;18.10;;;3.10;5.50;;;;;;5060335;28;20049;-63
2022/01/14 10:25:55;;;;;;;27.55;16.95;;;3.20;4.80;;;;;;5062955;28;20128;-63
2022/01/14 10:28:23;;;;;;;30.98;16.75;;;3.20;4.20;;;;;;5065299;28;20205;-63
2022/01/14 10:30:51;;;;;;;28.55;17.17;;;3.20;3.70;;;;;;5063524;28;20132;-63
2022/01/14 10:33:21;;;;;;;28.00;17.25;;;3.10;3.20;;;;;;5064031;28;20037;-63
2022/01/14 10:35:50;;;;;;;29.08;18.20;;;3.30;3.00;;;;;;5063534;28;20045;-63
2022/01/14 10:38:21;;;;;;;25.95;16.98;;;3.40;2.90;;;;;;5061655;28;20072;-63
2022/01/14 10:40:51;;;;;;;27.52;17.13;;;3.40;2.10;;;;;;5062210;28;20040;-63
2022/01/14 10:43:22;;;;;;;27.90;17.80;;;3.60;1.90;;;;;;5061871;28;20045;-63
2022/01/14 10:45:55;;;;;;;31.63;18.95;;;3.60;1.90;;;;;;5057144;28;20045;-63
2022/01/14 10:48:29;;;;;;;30.77;18.60;;;3.60;2.70;;;;;;5063975;28;20044;-63
2022/01/14 10:51:00;;;;;;;26.83;17.38;;;3.80;1.70;;;;;;5058696;28;20049;-63
2022/01/14 10:53:31;;;;;;;27.80;17.75;;;3.90;1.00;;;;;;5061743;28;20068;-63
2022/01/14 10:56:01;;;;;;;27.45;18.02;;;3.90;1.00;;;;;;5063607;28;20053;-63
2022/01/14 10:58:31;;;;;;;28.70;18.58;;;4.00;1.00;;;;;;5062951;28;20041;-63
2022/01/14 11:01:06;;;;;;;32.45;19.45;;;4.00;1.00;;;;;;5060041;28;20045;-63
2022/01/14 11:03:36;;;;;;;29.92;18.70;;;4.00;1.00;;;;;;5064879;28;20102;-64
2022/01/14 11:06:22;;;;;;;28.92;18.25;;;3.90;1.00;;;;;;5056986;28;20090;-64
2022/01/14 11:08:55;;;;;;;28.40;17.80;;;3.90;1.00;;;;;;5066682;28;20072;-64
2022/01/14 11:11:23;;;;;;;29.77;17.95;;;4.10;1.00;;;;;;5065069;28;20045;-64
2022/01/14 11:13:52;;;;;;;27.70;16.70;;;4.20;1.00;;;;;;5061681;28;20156;-64
2022/01/14 11:16:20;;;;;;;28.33;18.05;;;4.20;1.00;;;;;;5067304;28;20507;-64
2022/01/14 11:18:51;;;;;;;27.63;17.10;;;4.40;1.00;;;;;;5065829;28;20602;-63
2022/01/14 11:24:06;;;;;;;27.70;16.65;;;4.40;1.00;;;;;;5066371;28;20059;-64
2022/01/14 11:26:38;;;;;;;26.17;16.08;;;4.40;1.00;;;;;;5062377;28;20044;-64
2022/01/14 11:29:11;;;;;;;28.70;16.52;;;4.50;1.00;;;;;;5060777;28;20588;-62
2022/01/14 11:31:40;;;;;;;27.98;17.13;;;4.60;1.00;;;;;;5061055;28;20043;-63
2022/01/14 11:34:11;;;;;;;31.95;16.55;;;4.70;1.00;;;;;;5065414;28;20094;-63
2022/01/14 11:36:52;;;;;;;26.10;16.58;;;4.80;1.00;;;;;;5059254;28;20072;-63
2022/01/14 11:39:22;;;;;;;26.70;16.42;;;4.80;1.00;;;;;;5062491;28;20044;-64
2022/01/14 11:41:54;;;;;;;28.48;17.38;;;4.90;1.00;;;;;;5060534;28;20101;-63
2022/01/14 11:44:47;;;;;;;25.65;16.48;;;5.00;1.00;;;;;;5060177;28;20048;-64
2022/01/14 11:47:47;;;;;;;25.05;16.45;;;4.90;1.00;;;;;;5058723;28;20127;-63
2022/01/14 11:50:44;;;;;;;29.25;15.95;;;5.00;1.00;;;;;;5062917;28;20072;-64
2022/01/14 11:53:32;;;;;;;26.75;15.02;;;5.00;1.00;;;;;;5063238;28;20048;-64
2022/01/14 11:56:00;;;;;;;25.25;14.23;;;5.00;1.00;;;;;;5063980;28;20053;-64
2022/01/14 11:58:28;;;;;;;21.52;13.65;;;5.00;1.00;;;;;;5064756;28;20044;-63
2022/01/14 12:00:58;;;;;;;19.10;12.02;;;5.20;1.00;;;;;;5056872;28;20053;-64
2022/01/14 12:03:29;;;;;;;16.15;10.57;;;5.20;1.00;;;;;;5056311;28;20048;-64
2022/01/14 12:06:00;;;;;;;17.60;10.25;;;5.20;1.00;;;;;;5061804;28;20056;-63
2022/01/14 12:08:29;;;;;;;11.07;8.45;;;5.30;1.00;;;;;;5061172;28;20091;-63
2022/01/14 12:11:24;;;;;;;11.68;7.32;;;5.30;1.00;;;;;;5057977;28;20049;-64
2022/01/14 12:14:01;;;;;;;11.98;6.90;;;5.30;1.00;;;;;;5062934;28;20071;-64
2022/01/14 12:16:45;;;;;;;11.63;7.60;;;5.30;1.00;;;;;;5065263;28;20472;-65
2022/01/14 12:19:16;;;;;;;9.20;6.67;;;5.40;1.00;;;;;;5054078;28;20052;-64
2022/01/14 12:21:59;;;;;;;11.32;7.00;;;5.50;1.00;;;;;;5065155;28;20040;-64
2022/01/14 12:24:38;;;;;;;10.45;7.25;;;5.40;1.00;;;;;;5061510;28;20504;-64
2022/01/14 12:27:43;;;;;;;10.20;6.82;;;5.50;1.00;;;;;;5059618;28;20045;-63
2022/01/14 12:30:25;;;;;;;10.65;7.80;;;5.60;1.00;;;;;;5061711;28;20069;-64
2022/01/14 12:32:55;;;;;;;12.45;8.27;;;5.60;1.00;;;;;;5062937;28;20047;-64
2022/01/14 12:35:29;;;;;;;12.75;8.35;;;5.70;1.00;;;;;;5061376;28;20127;-65
2022/01/14 12:37:59;;;;;;;15.43;9.20;;;5.70;1.00;;;;;;5062917;28;20044;-65
2022/01/14 12:40:36;;;;;;;11.88;8.32;;;5.70;1.00;;;;;;5062891;28;20068;-64
2022/01/14 12:43:09;;;;;;;14.77;9.68;;;5.80;1.00;;;;;;5056220;28;20067;-64
2022/01/14 12:45:51;;;;;;;12.23;7.95;;;5.80;1.00;;;;;;5067045;28;20562;-63
2022/01/14 12:51:07;;;;;;;19.63;12.73;;;6.00;1.00;;;;;;5060861;28;20052;-64
2022/01/14 12:53:35;;;;;;;20.02;11.98;;;6.00;1.00;;;;;;5061915;28;20094;-65
2022/01/14 12:56:18;;;;;;;19.42;12.75;;;6.10;1.00;;;;;;5063035;28;20041;-63
2022/01/14 12:59:05;;;;;;;23.65;14.52;;;6.00;1.00;;;;;;5059647;28;20048;-63
2022/01/14 13:01:38;;;;;;;22.92;15.45;;;5.90;1.00;;;;;;5061593;28;20037;-64
2022/01/14 13:04:09;;;;;;;25.20;16.38;;;5.80;1.00;;;;;;5060724;28;20519;-63
2022/01/14 13:06:49;;;;;;;24.08;16.05;;;5.90;1.00;;;;;;5054691;28;20049;-64
2022/01/14 13:09:21;;;;;;;27.25;17.42;;;6.00;1.00;;;;;;5064397;28;20121;-64
2022/01/14 13:11:55;;;;;;;23.70;15.82;;;6.10;1.00;;;;;;5062864;28;20064;-64
2022/01/14 13:14:30;;;;;;;26.13;16.15;;;6.10;1.00;;;;;;5065145;28;20095;-64
2022/01/14 13:17:00;;;;;;;26.05;17.13;;;6.20;1.00;;;;;;5059694;28;20080;-64